createdAt,value
2023-04-18T00:01:44.650Z,25.99
2023-04-18T00:04:12.114Z,24.95
2023-04-18T00:06:39.272Z,23.72
2023-04-18T00:09:06.096Z,23.19
2023-04-18T00:11:32.718Z,23.31
2023-04-18T00:13:59.398Z,22.71
2023-04-18T00:16:27.205Z,22.83
2023-04-18T00:18:54.267Z,22.71
2023-04-18T00:21:22.503Z,22.97
2023-04-18T00:23:49.121Z,22.70
2023-04-18T00:26:15.818Z,22.02
2023-04-18T00:28:42.496Z,20.95
2023-04-18T00:31:09.219Z,19.96
2023-04-18T00:33:35.952Z,19.82
2023-04-18T00:36:02.560Z,20.03
2023-04-18T00:38:29.175Z,19.85
2023-04-18T00:40:55.793Z,19.41
2023-04-18T00:43:24.687Z,19.04
2023-04-18T00:45:51.314Z,18.50
2023-04-18T00:48:18.325Z,18.42
2023-04-18T00:50:45.526Z,18.56
2023-04-18T00:53:12.708Z,18.30
2023-04-18T00:55:40.642Z,18.34
2023-04-18T00:58:07.421Z,18.65
2023-04-18T01:00:34.454Z,17.86
2023-04-18T01:03:01.349Z,18.68
2023-04-18T01:05:28.233Z,18.56
2023-04-18T01:08:00.865Z,19.65
2023-04-18T01:10:29.061Z,20.04
2023-04-18T01:13:16.649Z,19.91
2023-04-18T01:15:46.101Z,19.81
2023-04-18T01:18:13.706Z,19.72
2023-04-18T01:20:43.252Z,20.30
2023-04-18T01:23:12.477Z,19.34
2023-04-18T01:25:39.308Z,19.18
2023-04-18T01:28:06.855Z,18.87
2023-04-18T01:30:34.449Z,19.52
2023-04-18T01:33:02.776Z,19.16
2023-04-18T01:35:30.423Z,18.45
2023-04-18T01:37:57.736Z,18.42
2023-04-18T01:40:24.922Z,17.85
2023-04-18T01:42:52.066Z,18.00
2023-04-18T01:45:20.158Z,18.28
2023-04-18T01:47:47.291Z,18.15
2023-04-18T01:50:14.334Z,18.31
2023-04-18T01:52:41.308Z,17.86
2023-04-18T01:55:08.444Z,17.72
2023-04-18T01:57:36.863Z,17.91
2023-04-18T02:00:08.082Z,17.68
2023-04-18T02:02:34.959Z,17.27
2023-04-18T02:05:01.920Z,17.18
2023-04-18T02:07:28.578Z,18.14
2023-04-18T02:09:55.388Z,17.43
2023-04-18T02:12:22.165Z,17.38
2023-04-18T02:14:53.413Z,17.78
2023-04-18T02:17:23.597Z,17.33
2023-04-18T02:19:53.586Z,16.90
2023-04-18T02:22:20.291Z,17.41
2023-04-18T02:24:46.884Z,17.69
2023-04-18T02:27:13.596Z,17.14
2023-04-18T02:29:40.183Z,17.13
2023-04-18T02:32:06.983Z,17.26
2023-04-18T02:34:33.744Z,17.20
2023-04-18T02:37:00.493Z,16.92
2023-04-18T02:39:27.365Z,16.68
2023-04-18T02:41:53.969Z,16.74
2023-04-18T02:44:20.622Z,17.13
2023-04-18T02:46:47.222Z,17.18
2023-04-18T02:49:14.232Z,16.93
2023-04-18T02:51:40.879Z,16.89
2023-04-18T02:54:07.500Z,16.97
2023-04-18T02:56:39.773Z,17.36
2023-04-18T02:59:07.227Z,17.40
2023-04-18T03:01:34.489Z,17.87
2023-04-18T03:04:01.224Z,17.79
2023-04-18T03:06:27.879Z,17.60
2023-04-18T03:08:55.404Z,17.49
2023-04-18T03:11:22.470Z,18.15
2023-04-18T03:13:49.133Z,17.92
2023-04-18T03:16:16.508Z,18.41
2023-04-18T03:18:43.271Z,18.18
2023-04-18T03:21:09.876Z,18.60
2023-04-18T03:23:36.465Z,18.35
2023-04-18T03:26:05.556Z,18.48
2023-04-18T03:28:32.282Z,18.36
2023-04-18T03:30:59.365Z,18.82
2023-04-18T03:33:26.046Z,18.40
2023-04-18T03:35:52.690Z,19.30
2023-04-18T03:38:19.284Z,19.84
2023-04-18T03:40:46.299Z,19.42
2023-04-18T03:43:12.988Z,20.01
2023-04-18T03:45:39.674Z,19.16
2023-04-18T03:48:07.192Z,19.82
2023-04-18T03:50:33.780Z,19.75
2023-04-18T03:53:00.711Z,19.96
2023-04-18T03:55:27.925Z,20.65
2023-04-18T03:57:54.521Z,20.18
2023-04-18T04:00:21.144Z,20.48
2023-04-18T04:02:47.906Z,21.37
2023-04-18T04:05:14.695Z,20.67
2023-04-18T04:07:41.356Z,21.08
2023-04-18T04:10:08.235Z,20.54
2023-04-18T04:12:35.088Z,21.37
2023-04-18T04:15:01.793Z,20.99
2023-04-18T04:17:28.411Z,20.73
2023-04-18T04:19:55.156Z,21.41
2023-04-18T04:22:21.746Z,20.73
2023-04-18T04:24:48.330Z,20.91
2023-04-18T04:27:14.941Z,21.52
2023-04-18T04:29:43.688Z,20.92
2023-04-18T04:32:10.420Z,21.09
2023-04-18T04:34:37.046Z,20.95
2023-04-18T04:37:03.756Z,21.33
2023-04-18T04:39:30.463Z,20.69
2023-04-18T04:41:57.618Z,20.75
2023-04-18T04:44:26.107Z,21.23
2023-04-18T04:46:54.416Z,21.39
2023-04-18T04:49:21.119Z,21.90
2023-04-18T04:51:47.776Z,21.54
2023-04-18T04:54:14.729Z,21.33
2023-04-18T04:56:41.472Z,21.44
2023-04-18T04:59:08.044Z,21.34
2023-04-18T05:01:34.759Z,21.50
2023-04-18T05:04:01.497Z,21.77
2023-04-18T05:06:28.368Z,21.60
2023-04-18T05:08:56.711Z,21.61
2023-04-18T05:11:23.474Z,21.70
2023-04-18T05:13:50.236Z,21.46
2023-04-18T05:16:17.028Z,22.26
2023-04-18T05:18:43.670Z,21.30
2023-04-18T05:21:10.503Z,21.31
2023-04-18T05:23:37.248Z,21.63
2023-04-18T05:26:05.320Z,21.59
2023-04-18T05:28:32.670Z,21.96
2023-04-18T05:31:02.498Z,21.59
2023-04-18T05:33:31.028Z,22.01
2023-04-18T05:35:58.778Z,21.46
2023-04-18T05:38:25.837Z,21.48
2023-04-18T05:40:55.386Z,21.42
2023-04-18T05:43:22.644Z,21.66
2023-04-18T05:45:49.667Z,22.03
2023-04-18T05:48:16.279Z,22.18
2023-04-18T05:50:42.910Z,21.25
2023-04-18T05:53:09.602Z,21.11
2023-04-18T05:55:36.607Z,21.28
2023-04-18T05:58:03.169Z,21.04
2023-04-18T06:00:29.793Z,20.79
2023-04-18T06:02:57.160Z,20.79
2023-04-18T06:05:24.206Z,20.87
2023-04-18T06:07:51.039Z,21.63
2023-04-18T06:10:17.745Z,21.43
2023-04-18T06:12:44.381Z,21.68
2023-04-18T06:15:11.685Z,21.48
2023-04-18T06:17:38.387Z,20.86
2023-04-18T06:20:06.266Z,21.25
2023-04-18T06:22:34.080Z,21.37
2023-04-18T06:25:00.760Z,20.50
2023-04-18T06:27:31.487Z,20.83
2023-04-18T06:29:58.737Z,20.60
2023-04-18T06:32:25.742Z,20.74
2023-04-18T06:34:53.077Z,19.99
2023-04-18T06:37:20.684Z,20.44
2023-04-18T06:39:47.994Z,19.97
2023-04-18T06:42:14.571Z,19.77
2023-04-18T06:44:43.048Z,19.38
2023-04-18T06:47:10.528Z,19.20
2023-04-18T06:49:37.135Z,18.97
2023-04-18T06:52:03.826Z,19.22
2023-04-18T06:54:30.559Z,18.43
2023-04-18T06:56:57.333Z,18.60
2023-04-18T06:59:23.989Z,18.20
2023-04-18T07:01:51.442Z,17.97
2023-04-18T07:04:18.604Z,18.29
2023-04-18T07:06:45.539Z,18.34
2023-04-18T07:09:12.126Z,17.93
2023-04-18T07:11:40.559Z,18.03
2023-04-18T07:14:08.023Z,17.83
2023-04-18T07:16:34.804Z,17.49
2023-04-18T07:19:01.470Z,17.41
2023-04-18T07:21:28.382Z,17.57
2023-04-18T07:23:55.334Z,16.98
2023-04-18T07:26:22.174Z,17.63
2023-04-18T07:28:49.219Z,17.17
2023-04-18T07:31:16.571Z,16.69
2023-04-18T07:33:43.462Z,16.44
2023-04-18T07:36:10.335Z,17.08
2023-04-18T07:38:37.103Z,16.93
2023-04-18T07:41:03.891Z,16.52
2023-04-18T07:43:31.671Z,16.51
2023-04-18T07:45:58.551Z,16.59
2023-04-18T07:48:25.419Z,16.13
2023-04-18T07:50:52.339Z,15.50
2023-04-18T07:53:19.231Z,15.93
2023-04-18T07:55:46.572Z,15.28
2023-04-18T07:58:13.825Z,14.43
2023-04-18T08:00:42.496Z,14.56
2023-04-18T08:03:13.261Z,14.70
2023-04-18T08:05:42.345Z,14.76
2023-04-18T08:08:11.351Z,14.56
2023-04-18T08:10:38.132Z,14.78
2023-04-18T08:13:05.019Z,14.88
2023-04-18T08:15:32.776Z,13.95
2023-04-18T08:18:00.497Z,14.06
2023-04-18T08:20:27.405Z,13.66
2023-04-18T08:23:05.571Z,14.01
2023-04-18T08:25:33.949Z,13.42
2023-04-18T08:28:00.603Z,13.61
2023-04-18T08:30:27.326Z,13.51
2023-04-18T08:32:54.071Z,14.07
2023-04-18T08:35:20.850Z,13.47
2023-04-18T08:37:47.459Z,13.71
2023-04-18T08:40:14.176Z,13.26
2023-04-18T08:42:44.383Z,12.40
2023-04-18T08:45:14.219Z,12.67
2023-04-18T08:47:41.908Z,13.15
2023-04-18T08:50:10.291Z,12.91
2023-04-18T08:52:44.978Z,12.83
2023-04-18T08:55:11.626Z,13.32
2023-04-18T08:57:38.171Z,12.89
2023-04-18T09:00:09.944Z,12.73
2023-04-18T09:02:43.126Z,12.36
2023-04-18T09:05:14.334Z,12.19
2023-04-18T09:07:42.235Z,11.96
2023-04-18T09:10:10.091Z,12.05
2023-04-18T09:12:50.525Z,10.98
2023-04-18T09:15:23.747Z,11.38
2023-04-18T09:17:56.272Z,12.41
2023-04-18T09:20:35.760Z,11.65
2023-04-18T09:23:04.959Z,11.24
2023-04-18T09:25:40.141Z,11.74
2023-04-18T09:28:31.829Z,12.87
2023-04-18T09:31:11.716Z,13.32
2023-04-18T09:33:43.245Z,12.67
2023-04-18T09:36:22.751Z,12.73
2023-04-18T09:38:53.844Z,13.48
2023-04-18T09:41:23.280Z,14.00
2023-04-18T09:43:50.033Z,13.87
2023-04-18T09:46:17.800Z,13.47
2023-04-18T09:48:44.662Z,12.77
2023-04-18T09:51:15.709Z,11.98
2023-04-18T09:53:47.746Z,11.89
2023-04-18T09:56:26.298Z,10.07
2023-04-18T09:59:00.968Z,10.47
2023-04-18T10:01:30.811Z,10.04
2023-04-18T10:04:02.052Z,9.97
2023-04-18T10:06:29.060Z,10.01
2023-04-18T10:08:56.284Z,9.87
2023-04-18T10:11:24.391Z,9.41
2023-04-18T10:13:57.076Z,9.84
2023-04-18T10:16:24.680Z,9.34
2023-04-18T10:18:51.647Z,9.34
2023-04-18T10:21:18.208Z,9.21
2023-04-18T10:23:48.753Z,9.33
2023-04-18T10:26:16.119Z,9.27
2023-04-18T10:28:56.806Z,9.90
2023-04-18T10:31:28.588Z,10.81
2023-04-18T10:34:04.532Z,11.05
2023-04-18T10:36:33.087Z,10.85
2023-04-18T10:39:19.879Z,10.77
2023-04-18T10:41:51.134Z,10.40
2023-04-18T10:44:22.999Z,8.94
2023-04-18T10:46:52.686Z,9.00
2023-04-18T10:49:26.783Z,9.00
2023-04-18T10:51:58.583Z,9.20
2023-04-18T10:54:50.919Z,9.36
2023-04-18T10:57:17.745Z,9.64
2023-04-18T10:59:49.923Z,9.29
2023-04-18T11:02:30.039Z,9.16
2023-04-18T11:05:04.889Z,10.05
2023-04-18T11:07:38.196Z,9.63
2023-04-18T11:10:07.569Z,9.93
2023-04-18T11:12:36.504Z,10.54
2023-04-18T11:15:14.396Z,10.15
2023-04-18T11:17:41.266Z,10.55
2023-04-18T11:20:15.169Z,11.39
2023-04-18T11:22:54.035Z,10.78
2023-04-18T11:25:25.972Z,11.82
2023-04-18T11:27:52.872Z,12.46
2023-04-18T11:30:19.648Z,12.23
2023-04-18T11:32:46.391Z,12.66
2023-04-18T11:35:14.802Z,12.84
2023-04-18T11:37:43.305Z,12.93
2023-04-18T11:40:10.618Z,13.45
2023-04-18T11:42:39.393Z,13.74
2023-04-18T11:45:13.806Z,13.98
2023-04-18T11:47:42.754Z,13.97
2023-04-18T11:50:11.843Z,14.07
2023-04-18T11:52:41.150Z,14.12
2023-04-18T11:55:17.736Z,13.94
2023-04-18T11:57:54.989Z,14.20
2023-04-18T12:00:38.950Z,15.05
2023-04-18T12:03:12.590Z,15.16
2023-04-18T12:05:41.006Z,14.66
2023-04-18T12:08:13.280Z,15.05
2023-04-18T12:10:48.277Z,15.13
2023-04-18T12:13:15.170Z,15.16
2023-04-18T12:15:44.852Z,16.31
2023-04-18T12:18:14.096Z,16.00
2023-04-18T12:20:47.278Z,15.69
2023-04-18T12:23:35.389Z,15.70
2023-04-18T12:26:03.925Z,16.64
2023-04-18T12:28:32.044Z,16.61
2023-04-18T12:30:59.591Z,16.68
2023-04-18T12:33:26.938Z,16.83
2023-04-18T12:35:53.974Z,17.49
2023-04-18T12:38:22.288Z,17.73
2023-04-18T12:40:50.294Z,17.93
2023-04-18T12:43:18.078Z,17.17
2023-04-18T12:45:46.893Z,17.33
2023-04-18T12:48:14.083Z,17.83
2023-04-18T12:50:40.912Z,17.86
2023-04-18T12:53:07.867Z,18.82
2023-04-18T12:55:34.571Z,18.99
2023-04-18T12:58:01.307Z,18.54
2023-04-18T13:00:32.521Z,17.32
2023-04-18T13:02:59.747Z,17.79
2023-04-18T13:05:31.720Z,17.54
2023-04-18T13:08:15.372Z,17.21
2023-04-18T13:10:44.188Z,18.75
2023-04-18T13:13:10.877Z,19.43
2023-04-18T13:15:37.986Z,20.14
2023-04-18T13:18:06.470Z,20.50
2023-04-18T13:20:34.436Z,20.10
2023-04-18T13:23:02.640Z,20.10
2023-04-18T13:25:29.524Z,19.72
2023-04-18T13:27:58.278Z,20.23
2023-04-18T13:30:24.940Z,20.48
2023-04-18T13:32:51.759Z,20.78
2023-04-18T13:35:18.562Z,21.15
2023-04-18T13:37:46.099Z,20.65
2023-04-18T13:40:13.027Z,21.15
2023-04-18T13:42:39.662Z,20.95
2023-04-18T13:45:07.273Z,20.62
2023-04-18T13:47:34.501Z,21.20
2023-04-18T13:50:01.204Z,21.13
2023-04-18T13:52:27.922Z,20.84
2023-04-18T13:54:54.471Z,20.57
2023-04-18T13:57:21.985Z,20.72
2023-04-18T13:59:48.598Z,20.74
2023-04-18T14:02:15.327Z,20.95
2023-04-18T14:04:42.239Z,19.82
2023-04-18T14:07:09.449Z,19.91
2023-04-18T14:09:36.158Z,19.96
2023-04-18T14:12:02.884Z,20.78
2023-04-18T14:14:29.571Z,20.96
2023-04-18T14:16:56.204Z,19.67
2023-04-18T14:19:22.910Z,19.34
2023-04-18T14:21:49.608Z,20.36
2023-04-18T14:24:16.246Z,20.41
2023-04-18T14:26:42.840Z,20.28
2023-04-18T14:29:09.540Z,21.24
2023-04-18T14:31:36.334Z,20.59
2023-04-18T14:34:03.205Z,20.78
2023-04-18T14:36:31.821Z,19.92
2023-04-18T14:38:59.180Z,20.24
2023-04-18T14:41:26.170Z,20.53
2023-04-18T14:43:52.907Z,20.13
2023-04-18T14:46:21.054Z,19.19
2023-04-18T14:48:47.900Z,19.06
2023-04-18T14:51:16.429Z,18.54
2023-04-18T14:53:44.432Z,18.66
2023-04-18T14:56:11.215Z,18.81
2023-04-18T14:58:37.825Z,19.35
2023-04-18T15:01:04.898Z,19.58
2023-04-18T15:03:32.081Z,19.36
2023-04-18T15:05:58.982Z,17.98
2023-04-18T15:08:25.740Z,18.61
2023-04-18T15:10:52.349Z,18.81
2023-04-18T15:13:19.350Z,18.35
2023-04-18T15:15:56.877Z,17.94
2023-04-18T15:18:23.594Z,17.67
2023-04-18T15:20:51.689Z,17.64
2023-04-18T15:23:18.356Z,17.69
2023-04-18T15:25:46.473Z,18.21
2023-04-18T15:28:13.980Z,18.27
2023-04-18T15:30:40.707Z,18.16
2023-04-18T15:33:07.636Z,17.89
2023-04-18T15:35:34.340Z,17.42
2023-04-18T15:38:01.028Z,17.67
2023-04-18T15:40:27.675Z,17.86
2023-04-18T15:42:54.515Z,17.00
2023-04-18T15:45:21.788Z,17.90
2023-04-18T15:47:48.450Z,17.51
2023-04-18T15:50:16.256Z,17.22
2023-04-18T15:52:43.806Z,16.56
2023-04-18T15:55:12.432Z,16.94
2023-04-18T15:57:40.004Z,16.55
2023-04-18T16:00:17.436Z,16.28
2023-04-18T16:02:45.865Z,16.60
2023-04-18T16:05:13.770Z,16.16
2023-04-18T16:07:42.064Z,15.86
2023-04-18T16:10:10.497Z,15.83
2023-04-18T16:12:38.225Z,16.27
2023-04-18T16:15:07.061Z,16.26
2023-04-18T16:17:34.273Z,15.72
2023-04-18T16:20:01.207Z,15.86
2023-04-18T16:22:27.983Z,16.59
2023-04-18T16:24:54.597Z,15.81
2023-04-18T16:27:21.283Z,16.24
2023-04-18T16:29:48.010Z,15.86
2023-04-18T16:32:14.681Z,16.02
2023-04-18T16:34:41.355Z,16.00
2023-04-18T16:37:07.961Z,16.45
2023-04-18T16:39:34.724Z,16.39
2023-04-18T16:42:01.494Z,16.61
2023-04-18T16:44:28.186Z,16.14
2023-04-18T16:46:54.833Z,15.66
2023-04-18T16:49:21.708Z,15.87
2023-04-18T16:51:48.999Z,15.62
2023-04-18T16:54:16.207Z,15.26
2023-04-18T16:56:44.599Z,15.14
2023-04-18T16:59:11.355Z,15.93
2023-04-18T17:01:38.026Z,15.63
2023-04-18T17:04:05.172Z,15.66
2023-04-18T17:06:32.610Z,15.93
2023-04-18T17:08:59.333Z,16.40
2023-04-18T17:11:26.506Z,15.82
2023-04-18T17:13:53.177Z,15.40
2023-04-18T17:16:20.041Z,14.56
2023-04-18T17:18:46.711Z,14.70
2023-04-18T17:21:13.372Z,14.58
2023-04-18T17:23:42.349Z,15.60
2023-04-18T17:26:09.684Z,15.36
2023-04-18T17:28:36.611Z,15.70
2023-04-18T17:31:03.900Z,15.28
2023-04-18T17:33:31.146Z,15.90
2023-04-18T17:35:58.331Z,14.97
2023-04-18T17:38:25.025Z,16.01
2023-04-18T17:40:59.831Z,15.67
2023-04-18T17:43:26.818Z,15.58
2023-04-18T17:45:54.024Z,15.33
2023-04-18T17:48:21.151Z,15.46
2023-04-18T17:50:47.947Z,15.18
2023-04-18T17:53:14.741Z,15.59
2023-04-18T17:55:41.440Z,15.81
2023-04-18T17:58:08.143Z,15.70
2023-04-18T18:00:35.096Z,15.77
2023-04-18T18:03:02.536Z,15.68
2023-04-18T18:05:30.378Z,15.37
2023-04-18T18:07:57.636Z,15.69
2023-04-18T18:10:25.009Z,15.36
2023-04-18T18:12:51.652Z,15.47
2023-04-18T18:15:18.941Z,16.23
2023-04-18T18:17:48.755Z,15.31
2023-04-18T18:20:15.712Z,15.20
2023-04-18T18:22:43.005Z,16.00
2023-04-18T18:25:10.812Z,16.22
2023-04-18T18:27:37.650Z,16.40
2023-04-18T18:30:05.571Z,16.10
2023-04-18T18:32:32.311Z,16.54
2023-04-18T18:34:59.034Z,16.96
2023-04-18T18:37:26.675Z,16.77
2023-04-18T18:39:56.509Z,16.95
2023-04-18T18:42:23.307Z,17.39
2023-04-18T18:44:49.945Z,17.48
2023-04-18T18:47:17.889Z,17.01
2023-04-18T18:49:44.647Z,17.32
2023-04-18T18:52:11.229Z,17.71
2023-04-18T18:54:37.922Z,17.42
2023-04-18T18:57:04.596Z,17.74
2023-04-18T18:59:31.414Z,17.75
2023-04-18T19:01:58.149Z,18.23
2023-04-18T19:04:25.037Z,18.89
2023-04-18T19:06:51.751Z,19.26
2023-04-18T19:09:18.772Z,18.99
2023-04-18T19:11:45.425Z,19.90
2023-04-18T19:14:12.078Z,18.74
2023-04-18T19:16:38.807Z,18.38
2023-04-18T19:19:05.408Z,18.45
2023-04-18T19:21:32.060Z,18.40
2023-04-18T19:23:58.780Z,16.69
2023-04-18T19:26:25.450Z,16.37
2023-04-18T19:28:52.744Z,15.18
2023-04-18T19:31:19.551Z,16.05
2023-04-18T19:33:46.162Z,15.08
2023-04-18T19:36:12.915Z,14.81
2023-04-18T19:38:39.591Z,14.20
2023-04-18T19:41:06.884Z,13.72
2023-04-18T19:43:34.677Z,13.52
2023-04-18T19:46:01.556Z,13.17
2023-04-18T19:48:28.863Z,13.36
2023-04-18T19:50:56.637Z,12.53
2023-04-18T19:53:23.753Z,13.13
2023-04-18T19:55:50.455Z,13.04
2023-04-18T19:58:45.000Z,13.36
2023-04-18T20:01:16.299Z,13.53
2023-04-18T20:03:43.312Z,13.22
2023-04-18T20:06:10.934Z,13.42
2023-04-18T20:08:41.535Z,13.62
2023-04-18T20:11:10.410Z,14.01
2023-04-18T20:13:37.885Z,13.41
2023-04-18T20:16:05.844Z,13.67
2023-04-18T20:18:34.000Z,13.87
2023-04-18T20:21:00.695Z,13.71
2023-04-18T20:23:29.849Z,13.44
2023-04-18T20:26:08.646Z,13.83
2023-04-18T20:28:36.534Z,13.94
2023-04-18T20:31:04.883Z,13.80
2023-04-18T20:33:33.126Z,13.37
2023-04-18T20:36:00.053Z,13.84
2023-04-18T20:38:29.409Z,13.22
2023-04-18T20:40:58.768Z,13.83
2023-04-18T20:43:26.039Z,13.98
2023-04-18T20:45:54.467Z,13.67
2023-04-18T20:48:22.056Z,14.12
2023-04-18T20:50:51.516Z,13.66
2023-04-18T20:53:20.751Z,13.56
2023-04-18T20:55:48.515Z,13.30
2023-04-18T20:58:15.516Z,13.45
2023-04-18T21:00:42.335Z,13.32
2023-04-18T21:03:09.170Z,13.05
2023-04-18T21:05:37.153Z,13.37
2023-04-18T21:08:08.888Z,13.58
2023-04-18T21:10:36.224Z,13.63
2023-04-18T21:13:03.137Z,13.29
2023-04-18T21:15:29.950Z,13.40
2023-04-18T21:17:56.738Z,13.07
2023-04-18T21:20:23.608Z,13.04
2023-04-18T21:22:50.180Z,13.10
2023-04-18T21:25:16.964Z,12.97
2023-04-18T21:27:43.597Z,12.92
2023-04-18T21:30:10.541Z,12.95
2023-04-18T21:32:37.904Z,13.01
2023-04-18T21:35:04.862Z,12.85
2023-04-18T21:37:32.006Z,12.82
2023-04-18T21:39:58.612Z,13.32
2023-04-18T21:42:25.338Z,12.61
2023-04-18T21:44:51.987Z,12.82
2023-04-18T21:47:18.619Z,12.52
2023-04-18T21:49:45.387Z,12.87
2023-04-18T21:52:11.949Z,12.77
2023-04-18T21:54:39.883Z,12.98
2023-04-18T21:57:06.813Z,13.09
2023-04-18T21:59:33.430Z,12.89
2023-04-18T22:02:00.152Z,12.94
2023-04-18T22:04:27.029Z,12.50
2023-04-18T22:06:54.211Z,12.16
2023-04-18T22:09:21.387Z,12.84
2023-04-18T22:11:48.424Z,12.78
2023-04-18T22:14:15.226Z,12.50
2023-04-18T22:16:42.399Z,12.69
2023-04-18T22:19:09.112Z,12.94
2023-04-18T22:21:35.736Z,13.37
2023-04-18T22:24:02.713Z,12.35
2023-04-18T22:26:29.318Z,12.62
2023-04-18T22:28:55.921Z,12.87
2023-04-18T22:31:22.765Z,12.97
2023-04-18T22:33:50.746Z,12.59
2023-04-18T22:36:17.344Z,12.97
2023-04-18T22:38:43.956Z,13.27
2023-04-18T22:41:10.614Z,13.01
2023-04-18T22:43:37.266Z,13.34
2023-04-18T22:46:03.959Z,13.07
2023-04-18T22:48:31.130Z,12.90
2023-04-18T22:50:57.778Z,12.93
2023-04-18T22:53:24.334Z,13.26
2023-04-18T22:55:51.001Z,13.49
2023-04-18T22:58:17.677Z,12.79
2023-04-18T23:00:44.285Z,12.89
2023-04-18T23:03:11.273Z,12.91
2023-04-18T23:05:38.111Z,13.41
2023-04-18T23:08:06.847Z,13.60
2023-04-18T23:10:34.168Z,13.20
2023-04-18T23:13:00.859Z,13.68
2023-04-18T23:15:27.466Z,13.43
2023-04-18T23:17:54.241Z,13.36
2023-04-18T23:20:23.842Z,13.18
2023-04-18T23:22:51.697Z,13.07
2023-04-18T23:25:19.541Z,13.66
2023-04-18T23:27:46.869Z,13.66
2023-04-18T23:30:13.630Z,13.66
2023-04-18T23:32:40.251Z,13.47
2023-04-18T23:35:07.147Z,13.90
2023-04-18T23:37:33.871Z,13.88
2023-04-18T23:40:00.674Z,14.14
2023-04-18T23:42:27.554Z,13.88
2023-04-18T23:44:54.648Z,14.14
2023-04-18T23:47:21.938Z,14.40
2023-04-18T23:49:48.670Z,14.57
2023-04-18T23:52:15.427Z,14.44
2023-04-18T23:54:42.040Z,14.66
2023-04-18T23:57:08.777Z,14.83
2023-04-18T23:59:35.398Z,15.47
